createdAt,value
2022-09-15T00:02:18.588Z,14.22
2022-09-15T00:04:44.960Z,14.21
2022-09-15T00:07:11.284Z,14.12
2022-09-15T00:09:37.584Z,14.10
2022-09-15T00:12:08.680Z,14.05
2022-09-15T00:14:35.012Z,14.03
2022-09-15T00:17:01.356Z,13.97
2022-09-15T00:19:27.682Z,14.02
2022-09-15T00:21:53.999Z,14.04
2022-09-15T00:24:20.369Z,14.00
2022-09-15T00:26:46.763Z,13.95
2022-09-15T00:29:13.088Z,13.90
2022-09-15T00:31:39.414Z,13.95
2022-09-15T00:34:07.053Z,13.89
2022-09-15T00:36:33.857Z,13.90
2022-09-15T00:39:00.370Z,13.82
2022-09-15T00:41:26.746Z,13.89
2022-09-15T00:43:57.204Z,13.83
2022-09-15T00:46:27.544Z,13.83
2022-09-15T00:49:05.775Z,13.78
2022-09-15T00:51:50.425Z,13.74
2022-09-15T00:54:18.659Z,13.76
2022-09-15T00:56:47.889Z,13.54
2022-09-15T00:59:16.932Z,13.52
2022-09-15T01:01:43.758Z,13.54
2022-09-15T01:04:10.248Z,13.43
2022-09-15T01:06:38.215Z,13.38
2022-09-15T01:09:25.614Z,13.45
2022-09-15T01:11:51.980Z,13.36
2022-09-15T01:14:18.282Z,13.47
2022-09-15T01:16:59.455Z,13.44
2022-09-15T01:19:45.789Z,13.40
2022-09-15T01:22:12.056Z,13.31
2022-09-15T01:24:41.182Z,13.30
2022-09-15T01:27:42.186Z,13.34
2022-09-15T01:30:12.198Z,13.33
2022-09-15T01:33:06.731Z,13.36
2022-09-15T01:35:36.038Z,13.42
2022-09-15T01:38:15.342Z,13.43
2022-09-15T01:40:44.706Z,13.50
2022-09-15T01:43:11.284Z,13.57
2022-09-15T01:45:39.115Z,13.53
2022-09-15T01:48:06.328Z,13.57
2022-09-15T01:50:36.608Z,13.59
2022-09-15T01:53:05.633Z,13.56
2022-09-15T01:55:58.000Z,13.51
2022-09-15T01:58:24.396Z,13.56
2022-09-15T02:00:53.725Z,13.64
2022-09-15T02:03:22.354Z,13.63
2022-09-15T02:05:52.437Z,13.65
2022-09-15T02:08:36.575Z,13.60
2022-09-15T02:11:09.014Z,13.59
2022-09-15T02:13:45.165Z,13.60
2022-09-15T02:16:15.854Z,13.66
2022-09-15T02:18:46.030Z,13.55
2022-09-15T02:21:18.842Z,13.52
2022-09-15T02:23:50.964Z,13.42
2022-09-15T02:26:19.591Z,13.57
2022-09-15T02:28:48.150Z,13.56
2022-09-15T02:31:16.126Z,13.29
2022-09-15T02:33:45.270Z,13.53
2022-09-15T02:36:13.494Z,13.21
2022-09-15T02:38:43.918Z,13.24
2022-09-15T02:41:10.262Z,13.14
2022-09-15T02:43:44.011Z,13.24
2022-09-15T02:46:10.378Z,13.18
2022-09-15T02:48:36.708Z,13.07
2022-09-15T02:51:03.069Z,12.99
2022-09-15T02:53:29.385Z,13.08
2022-09-15T02:55:56.217Z,13.07
2022-09-15T02:58:22.498Z,12.87
2022-09-15T03:00:48.877Z,12.86
2022-09-15T03:03:15.283Z,12.82
2022-09-15T03:05:41.567Z,13.12
2022-09-15T03:08:07.847Z,12.96
2022-09-15T03:10:34.241Z,12.74
2022-09-15T03:13:00.552Z,13.00
2022-09-15T03:15:27.083Z,13.12
2022-09-15T03:17:53.911Z,13.07
2022-09-15T03:20:24.227Z,12.76
2022-09-15T03:22:50.569Z,13.04
2022-09-15T03:25:17.530Z,13.01
2022-09-15T03:27:43.840Z,13.09
2022-09-15T03:30:11.148Z,13.06
2022-09-15T03:32:37.704Z,12.80
2022-09-15T03:35:04.729Z,12.86
2022-09-15T03:37:31.142Z,13.20
2022-09-15T03:39:58.033Z,13.44
2022-09-15T03:42:24.433Z,13.37
2022-09-15T03:44:50.774Z,13.07
2022-09-15T03:47:17.227Z,13.12
2022-09-15T03:49:43.504Z,13.09
2022-09-15T03:52:10.046Z,13.28
2022-09-15T03:54:36.375Z,13.23
2022-09-15T03:57:03.272Z,13.30
2022-09-15T03:59:29.556Z,13.31
2022-09-15T04:01:56.039Z,13.28
2022-09-15T04:04:22.419Z,13.49
2022-09-15T04:06:48.737Z,13.44
2022-09-15T04:09:15.162Z,13.39
2022-09-15T04:11:41.824Z,13.51
2022-09-15T04:14:08.179Z,13.55
2022-09-15T04:16:34.660Z,13.36
2022-09-15T04:19:01.043Z,13.21
2022-09-15T04:21:27.406Z,13.44
2022-09-15T04:23:54.090Z,13.37
2022-09-15T04:26:31.348Z,13.34
2022-09-15T04:29:03.024Z,13.23
2022-09-15T04:31:30.783Z,13.24
2022-09-15T04:33:57.205Z,13.20
2022-09-15T04:36:24.789Z,13.08
2022-09-15T04:38:51.555Z,13.04
2022-09-15T04:41:18.916Z,13.00
2022-09-15T04:43:45.808Z,13.16
2022-09-15T04:46:12.887Z,13.08
2022-09-15T04:48:39.328Z,13.18
2022-09-15T04:51:06.990Z,13.10
2022-09-15T04:53:33.499Z,12.98
2022-09-15T04:56:07.262Z,12.89
2022-09-15T04:58:37.504Z,12.76
2022-09-15T05:01:10.610Z,12.88
2022-09-15T05:03:37.999Z,12.69
2022-09-15T05:06:05.853Z,12.71
2022-09-15T05:08:32.194Z,12.69
2022-09-15T05:10:59.462Z,12.70
2022-09-15T05:13:25.756Z,12.64
2022-09-15T05:15:52.084Z,12.76
2022-09-15T05:18:18.449Z,12.76
2022-09-15T05:20:44.751Z,12.65
2022-09-15T05:23:11.038Z,12.65
2022-09-15T05:25:38.685Z,12.75
2022-09-15T05:28:05.650Z,12.63
2022-09-15T05:30:38.609Z,12.71
2022-09-15T05:33:07.005Z,12.78
2022-09-15T05:35:33.281Z,12.93
2022-09-15T05:37:59.706Z,12.77
2022-09-15T05:40:26.060Z,12.68
2022-09-15T05:42:52.732Z,12.93
2022-09-15T05:45:19.010Z,12.85
2022-09-15T05:47:45.324Z,13.12
2022-09-15T05:50:11.647Z,13.16
2022-09-15T05:52:38.115Z,13.29
2022-09-15T05:55:04.619Z,13.15
2022-09-15T05:57:30.968Z,13.27
2022-09-15T05:59:57.305Z,13.41
2022-09-15T06:02:23.685Z,13.35
2022-09-15T06:04:49.998Z,13.50
2022-09-15T06:07:16.526Z,13.48
2022-09-15T06:09:42.829Z,13.44
2022-09-15T06:12:09.354Z,13.41
2022-09-15T06:14:35.641Z,13.47
2022-09-15T06:17:01.955Z,13.35
2022-09-15T06:19:28.288Z,13.23
2022-09-15T06:21:54.557Z,13.25
2022-09-15T06:24:21.544Z,13.16
2022-09-15T06:26:47.862Z,13.25
2022-09-15T06:29:14.196Z,13.12
2022-09-15T06:31:40.614Z,13.31
2022-09-15T06:34:08.557Z,13.26
2022-09-15T06:36:36.431Z,13.12
2022-09-15T06:39:03.049Z,13.17
2022-09-15T06:41:38.174Z,13.21
2022-09-15T06:44:09.479Z,13.12
2022-09-15T06:46:36.155Z,13.24
2022-09-15T06:49:02.540Z,13.38
2022-09-15T06:51:31.360Z,13.37
2022-09-15T06:53:57.837Z,13.41
2022-09-15T06:56:24.212Z,13.32
2022-09-15T06:58:50.581Z,13.50
2022-09-15T07:01:21.499Z,13.55
2022-09-15T07:03:48.007Z,13.45
2022-09-15T07:06:14.755Z,13.64
2022-09-15T07:08:41.649Z,13.55
2022-09-15T07:11:08.792Z,13.54
2022-09-15T07:13:35.482Z,13.59
2022-09-15T07:16:03.961Z,13.75
2022-09-15T07:18:34.270Z,13.64
2022-09-15T07:21:02.003Z,13.53
2022-09-15T07:23:28.953Z,13.74
2022-09-15T07:26:07.211Z,13.57
2022-09-15T07:28:34.173Z,13.62
2022-09-15T07:31:00.527Z,13.77
2022-09-15T07:33:26.848Z,13.83
2022-09-15T07:35:53.146Z,13.80
2022-09-15T07:38:19.445Z,13.88
2022-09-15T07:40:46.388Z,13.97
2022-09-15T07:43:13.184Z,13.96
2022-09-15T07:45:39.734Z,14.15
2022-09-15T07:48:07.257Z,14.17
2022-09-15T07:50:33.552Z,14.10
2022-09-15T07:52:59.872Z,14.08
2022-09-15T07:55:26.257Z,14.25
2022-09-15T07:58:02.348Z,14.23
2022-09-15T08:00:28.900Z,14.17
2022-09-15T08:02:55.786Z,14.32
2022-09-15T08:05:25.780Z,14.25
2022-09-15T08:07:52.114Z,14.33
2022-09-15T08:10:18.485Z,14.15
2022-09-15T08:12:44.881Z,14.11
2022-09-15T08:15:11.220Z,14.19
2022-09-15T08:17:37.512Z,14.19
2022-09-15T08:20:03.956Z,14.29
2022-09-15T08:22:30.290Z,14.28
2022-09-15T08:24:56.567Z,14.21
2022-09-15T08:27:24.614Z,14.34
2022-09-15T08:29:51.504Z,14.31
2022-09-15T08:32:17.905Z,14.07
2022-09-15T08:34:44.455Z,14.28
2022-09-15T08:37:10.814Z,14.32
2022-09-15T08:39:37.184Z,14.42
2022-09-15T08:42:04.190Z,14.32
2022-09-15T08:44:36.510Z,14.31
2022-09-15T08:47:11.132Z,14.26
2022-09-15T08:49:56.212Z,14.30
2022-09-15T08:52:25.602Z,14.38
2022-09-15T08:54:55.241Z,14.47
2022-09-15T08:57:23.404Z,14.37
2022-09-15T08:59:49.856Z,14.38
2022-09-15T09:02:29.395Z,14.48
2022-09-15T09:05:11.048Z,14.61
2022-09-15T09:08:03.806Z,14.39
2022-09-15T09:10:33.166Z,14.70
2022-09-15T09:13:13.577Z,14.67
2022-09-15T09:15:42.945Z,14.49
2022-09-15T09:18:26.109Z,14.43
2022-09-15T09:21:01.085Z,14.47
2022-09-15T09:23:28.472Z,14.67
2022-09-15T09:25:56.319Z,14.53
2022-09-15T09:28:27.955Z,14.66
2022-09-15T09:30:55.938Z,14.84
2022-09-15T09:33:34.613Z,14.97
2022-09-15T09:36:02.382Z,15.08
2022-09-15T09:38:31.677Z,15.14
2022-09-15T09:41:02.132Z,15.31
2022-09-15T09:43:29.927Z,15.25
2022-09-15T09:45:56.552Z,15.39
2022-09-15T09:48:24.119Z,15.48
2022-09-15T09:50:50.791Z,15.55
2022-09-15T09:53:17.094Z,15.57
2022-09-15T09:55:45.733Z,15.56
2022-09-15T09:58:14.472Z,15.63
2022-09-15T10:00:41.115Z,15.63
2022-09-15T10:03:24.570Z,15.52
2022-09-15T10:06:03.770Z,15.45
2022-09-15T10:08:30.428Z,15.41
2022-09-15T10:11:00.862Z,15.37
2022-09-15T10:13:27.212Z,15.24
2022-09-15T10:15:56.264Z,15.36
2022-09-15T10:18:26.669Z,15.27
2022-09-15T10:20:53.066Z,15.20
2022-09-15T10:23:21.552Z,15.25
2022-09-15T10:26:03.609Z,15.25
2022-09-15T10:28:29.972Z,15.14
2022-09-15T10:31:00.802Z,15.11
2022-09-15T10:33:28.239Z,15.19
2022-09-15T10:35:55.265Z,15.18
2022-09-15T10:38:30.590Z,15.05
2022-09-15T10:41:20.297Z,15.13
2022-09-15T10:44:05.625Z,15.13
2022-09-15T10:46:50.650Z,15.17
2022-09-15T10:49:29.082Z,15.05
2022-09-15T10:52:01.535Z,15.17
2022-09-15T10:54:34.135Z,15.13
2022-09-15T10:57:10.580Z,15.11
2022-09-15T10:59:53.633Z,15.30
2022-09-15T11:02:19.951Z,15.42
2022-09-15T11:05:04.641Z,15.35
2022-09-15T11:07:42.394Z,15.51
2022-09-15T11:10:19.041Z,15.57
2022-09-15T11:13:03.843Z,15.37
2022-09-15T11:15:33.262Z,15.45
2022-09-15T11:18:02.544Z,15.33
2022-09-15T11:20:39.204Z,15.39
2022-09-15T11:23:17.892Z,15.43
2022-09-15T11:25:47.014Z,15.55
2022-09-15T11:28:24.996Z,15.62
2022-09-15T11:31:11.744Z,15.75
2022-09-15T11:33:43.284Z,15.67
2022-09-15T11:36:12.800Z,15.86
2022-09-15T11:38:48.798Z,15.97
2022-09-15T11:41:33.454Z,15.95
2022-09-15T11:44:09.683Z,16.13
2022-09-15T11:46:53.459Z,16.06
2022-09-15T11:49:23.116Z,16.16
2022-09-15T11:51:52.558Z,16.29
2022-09-15T11:54:36.927Z,16.12
2022-09-15T11:57:03.635Z,16.31
2022-09-15T11:59:40.230Z,16.34
2022-09-15T12:02:15.979Z,16.13
2022-09-15T12:05:03.211Z,16.15
2022-09-15T12:07:32.659Z,16.11
2022-09-15T12:10:05.275Z,16.17
2022-09-15T12:12:33.458Z,16.12
2022-09-15T12:14:59.756Z,16.09
2022-09-15T12:17:26.051Z,16.03
2022-09-15T12:19:59.966Z,16.02
2022-09-15T12:22:26.301Z,16.15
2022-09-15T12:24:52.604Z,16.16
2022-09-15T12:27:20.129Z,15.84
2022-09-15T12:29:50.480Z,15.99
2022-09-15T12:32:30.343Z,15.67
2022-09-15T12:34:56.732Z,15.87
2022-09-15T12:37:24.329Z,15.95
2022-09-15T12:39:51.178Z,15.95
2022-09-15T12:42:23.640Z,15.97
2022-09-15T12:45:04.806Z,15.92
2022-09-15T12:47:41.318Z,16.00
2022-09-15T12:50:20.612Z,15.88
2022-09-15T12:52:48.655Z,15.91
2022-09-15T12:55:41.457Z,15.98
2022-09-15T12:58:09.611Z,15.87
2022-09-15T13:00:54.810Z,15.84
2022-09-15T13:03:28.357Z,15.88
2022-09-15T13:06:12.504Z,15.82
2022-09-15T13:08:38.798Z,15.90
2022-09-15T13:11:08.643Z,16.00
2022-09-15T13:13:39.435Z,16.19
2022-09-15T13:16:12.034Z,16.21
2022-09-15T13:18:38.645Z,16.02
2022-09-15T13:21:07.442Z,16.29
2022-09-15T13:23:39.818Z,16.45
2022-09-15T13:26:08.855Z,16.55
2022-09-15T13:28:36.594Z,16.43
2022-09-15T13:31:15.101Z,16.57
2022-09-15T13:39:48.609Z,16.68
2022-09-15T13:42:14.932Z,16.67
2022-09-15T13:44:56.646Z,16.73
2022-09-15T13:47:25.965Z,16.74
2022-09-15T13:49:55.242Z,16.56
2022-09-15T13:52:26.848Z,16.46
2022-09-15T13:55:11.817Z,16.45
2022-09-15T14:00:42.422Z,15.95
2022-09-15T14:03:11.189Z,16.00
2022-09-15T14:05:37.778Z,15.88
2022-09-15T14:08:07.692Z,15.76
2022-09-15T14:10:39.321Z,15.68
2022-09-15T14:13:05.653Z,15.68
2022-09-15T14:15:32.103Z,15.68
2022-09-15T14:17:58.461Z,15.61
2022-09-15T14:20:27.001Z,15.49
2022-09-15T14:22:53.373Z,15.47
2022-09-15T14:25:20.142Z,15.39
2022-09-15T14:27:50.803Z,15.37
2022-09-15T14:30:22.623Z,15.14
2022-09-15T14:32:52.322Z,15.07
2022-09-15T14:35:24.142Z,14.97
2022-09-15T14:37:56.010Z,15.05
2022-09-15T14:40:24.485Z,14.99
2022-09-15T14:42:51.305Z,15.02
2022-09-15T14:48:16.545Z,15.07
2022-09-15T14:50:48.188Z,14.97
2022-09-15T14:53:17.784Z,14.95
2022-09-15T14:55:44.051Z,14.99
2022-09-15T14:58:16.714Z,14.92
2022-09-15T15:00:49.805Z,14.88
2022-09-15T15:03:18.176Z,15.01
2022-09-15T15:05:54.691Z,15.11
2022-09-15T15:08:34.137Z,15.03
2022-09-15T15:11:01.000Z,15.03
2022-09-15T15:13:27.972Z,14.97
2022-09-15T15:15:54.439Z,15.14
2022-09-15T15:18:51.334Z,15.17
2022-09-15T15:21:31.157Z,15.21
2022-09-15T15:23:57.751Z,15.25
2022-09-15T15:26:34.645Z,15.36
2022-09-15T15:29:01.118Z,15.30
2022-09-15T15:31:28.675Z,15.28
2022-09-15T15:33:57.087Z,15.20
2022-09-15T15:36:24.192Z,15.26
2022-09-15T15:38:52.698Z,15.37
2022-09-15T15:41:20.599Z,15.37
2022-09-15T15:43:57.369Z,15.41
2022-09-15T15:46:42.597Z,15.47
2022-09-15T15:49:13.207Z,15.48
2022-09-15T15:51:40.218Z,15.49
2022-09-15T15:54:06.571Z,15.53
2022-09-15T15:56:37.673Z,15.38
2022-09-15T15:59:04.282Z,15.26
2022-09-15T16:01:31.027Z,15.37
2022-09-15T16:03:57.629Z,15.35
2022-09-15T16:06:24.039Z,15.37
2022-09-15T16:08:51.322Z,15.29
2022-09-15T16:11:17.716Z,15.31
2022-09-15T16:13:44.187Z,15.15
2022-09-15T16:16:20.603Z,15.13
2022-09-15T16:18:47.453Z,15.12
2022-09-15T16:21:16.618Z,15.05
2022-09-15T16:23:43.015Z,15.06
2022-09-15T16:26:11.246Z,15.07
2022-09-15T16:28:37.898Z,14.98
2022-09-15T16:31:04.463Z,15.09
2022-09-15T16:33:34.608Z,15.18
2022-09-15T16:36:06.964Z,15.02
2022-09-15T16:38:33.968Z,15.08
2022-09-15T16:41:00.945Z,14.93
2022-09-15T16:43:27.361Z,15.01
2022-09-15T16:45:53.716Z,14.78
2022-09-15T16:48:20.104Z,14.84
2022-09-15T16:51:23.027Z,14.89
2022-09-15T16:53:33.238Z,14.78
2022-09-15T16:55:59.596Z,14.68
2022-09-15T16:58:25.888Z,14.65
2022-09-15T17:00:52.770Z,14.61
2022-09-15T17:03:20.520Z,14.44
2022-09-15T17:05:48.795Z,14.56
2022-09-15T17:08:16.192Z,14.29
2022-09-15T17:10:42.892Z,14.37
2022-09-15T17:13:12.080Z,14.50
2022-09-15T17:15:39.397Z,14.41
2022-09-15T17:18:06.957Z,14.46
2022-09-15T17:20:38.557Z,14.55
2022-09-15T17:23:16.114Z,14.67
2022-09-15T17:25:48.854Z,14.44
2022-09-15T17:28:15.207Z,14.63
2022-09-15T17:30:41.721Z,14.66
2022-09-15T17:33:10.910Z,14.60
2022-09-15T17:35:37.623Z,14.62
2022-09-15T17:38:05.028Z,14.67
2022-09-15T17:40:31.504Z,14.59
2022-09-15T17:42:58.341Z,14.46
2022-09-15T17:45:27.005Z,14.46
2022-09-15T17:47:53.978Z,14.55
2022-09-15T17:50:21.523Z,14.47
2022-09-15T17:52:48.407Z,14.59
2022-09-15T17:55:35.029Z,14.31
2022-09-15T17:58:02.453Z,14.23
2022-09-15T18:00:30.121Z,13.89
2022-09-15T18:02:58.293Z,13.96
2022-09-15T18:05:29.670Z,14.00
2022-09-15T18:07:58.560Z,13.95
2022-09-15T18:10:25.542Z,14.21
2022-09-15T18:12:55.568Z,14.11
2022-09-15T18:15:23.763Z,13.93
2022-09-15T18:17:51.121Z,14.20
2022-09-15T18:20:19.131Z,14.09
2022-09-15T18:22:45.859Z,13.99
2022-09-15T18:25:20.454Z,13.83
2022-09-15T18:27:49.182Z,13.92
2022-09-15T18:30:16.641Z,13.59
2022-09-15T18:32:43.288Z,13.42
2022-09-15T18:35:10.015Z,13.60
2022-09-15T18:37:37.047Z,13.61
2022-09-15T18:40:09.125Z,13.38
2022-09-15T18:42:39.487Z,13.70
2022-09-15T18:45:06.960Z,13.51
2022-09-15T18:47:33.747Z,13.48
2022-09-15T18:50:00.716Z,13.24
2022-09-15T18:52:27.466Z,13.55
2022-09-15T18:54:53.863Z,13.44
2022-09-15T18:57:20.250Z,13.60
2022-09-15T18:59:47.584Z,13.65
2022-09-15T19:02:14.643Z,13.74
2022-09-15T19:04:41.939Z,13.73
2022-09-15T19:07:08.758Z,13.76
2022-09-15T19:09:36.387Z,13.55
2022-09-15T19:12:03.301Z,13.52
2022-09-15T19:14:30.170Z,13.43
2022-09-15T19:16:58.331Z,13.52
2022-09-15T19:19:25.260Z,13.54
2022-09-15T19:21:51.697Z,13.64
2022-09-15T19:24:18.291Z,13.50
2022-09-15T19:26:46.696Z,13.69
2022-09-15T19:29:13.366Z,13.73
2022-09-15T19:31:42.120Z,13.71
2022-09-15T19:34:09.020Z,13.63
2022-09-15T19:36:35.435Z,13.78
2022-09-15T19:39:03.377Z,13.79
2022-09-15T19:41:31.337Z,13.88
2022-09-15T19:44:00.069Z,13.74
2022-09-15T19:46:27.019Z,13.83
2022-09-15T19:48:53.671Z,13.70
2022-09-15T19:51:20.574Z,13.97
2022-09-15T19:53:47.001Z,13.84
2022-09-15T19:56:14.449Z,13.64
2022-09-15T19:58:40.865Z,13.68
2022-09-15T20:01:07.292Z,13.43
2022-09-15T20:03:33.626Z,13.51
2022-09-15T20:05:59.928Z,13.62
2022-09-15T20:08:26.782Z,13.33
2022-09-15T20:10:53.335Z,13.28
2022-09-15T20:13:19.725Z,13.24
2022-09-15T20:15:56.819Z,13.33
2022-09-15T20:18:23.454Z,13.39
2022-09-15T20:20:49.828Z,13.37
2022-09-15T20:23:16.363Z,13.31
2022-09-15T20:25:42.844Z,13.31
2022-09-15T20:28:09.137Z,13.16
2022-09-15T20:30:35.565Z,13.14
2022-09-15T20:33:01.880Z,13.15
2022-09-15T20:35:28.175Z,13.14
2022-09-15T20:37:54.522Z,13.11
2022-09-15T20:40:20.848Z,13.11
2022-09-15T20:42:47.734Z,13.12
2022-09-15T20:45:14.089Z,13.25
2022-09-15T20:47:40.400Z,13.25
2022-09-15T20:50:06.903Z,13.11
2022-09-15T20:52:38.265Z,13.21
2022-09-15T20:55:05.123Z,13.22
2022-09-15T20:57:31.935Z,13.13
2022-09-15T20:59:58.242Z,13.12
2022-09-15T21:02:24.599Z,13.04
2022-09-15T21:04:50.878Z,13.13
2022-09-15T21:07:17.261Z,13.14
2022-09-15T21:09:44.549Z,13.11
2022-09-15T21:12:10.844Z,13.07
2022-09-15T21:14:37.141Z,13.11
2022-09-15T21:17:03.495Z,13.15
2022-09-15T21:19:31.403Z,13.35
2022-09-15T21:21:58.442Z,13.34
2022-09-15T21:24:24.755Z,13.34
2022-09-15T21:27:10.151Z,13.51
2022-09-15T21:29:37.022Z,13.63
2022-09-15T21:32:03.389Z,13.57
2022-09-15T21:34:30.211Z,13.69
2022-09-15T21:36:57.856Z,13.66
2022-09-15T21:39:24.268Z,13.65
2022-09-15T21:41:50.612Z,13.48
2022-09-15T21:44:17.269Z,13.54
2022-09-15T21:46:44.907Z,13.65
2022-09-15T21:49:11.666Z,13.37
2022-09-15T21:51:38.012Z,13.42
2022-09-15T21:54:04.873Z,13.42
2022-09-15T21:56:31.297Z,13.31
2022-09-15T21:58:57.640Z,13.14
2022-09-15T22:01:29.120Z,13.15
2022-09-15T22:04:00.111Z,13.25
2022-09-15T22:06:30.450Z,13.31
2022-09-15T22:08:57.118Z,13.10
2022-09-15T22:11:23.509Z,13.10
2022-09-15T22:13:49.861Z,12.97
2022-09-15T22:16:20.795Z,13.03
2022-09-15T22:18:47.748Z,12.86
2022-09-15T22:21:18.439Z,13.14
2022-09-15T22:23:46.274Z,12.96
2022-09-15T22:26:15.042Z,12.82
2022-09-15T22:28:41.417Z,12.93
2022-09-15T22:31:08.826Z,12.71
2022-09-15T22:33:35.636Z,12.97
2022-09-15T22:36:02.478Z,12.84
2022-09-15T22:38:29.816Z,12.87
2022-09-15T22:40:56.684Z,12.81
2022-09-15T22:43:23.022Z,12.73
2022-09-15T22:45:49.564Z,12.65
2022-09-15T22:48:15.945Z,12.71
2022-09-15T22:50:43.788Z,12.75
2022-09-15T22:53:10.074Z,12.79
2022-09-15T22:55:36.378Z,12.81
2022-09-15T22:58:02.660Z,12.83
2022-09-15T23:00:29.225Z,12.88
2022-09-15T23:02:56.127Z,12.85
2022-09-15T23:05:22.431Z,12.72
2022-09-15T23:07:48.756Z,12.70
2022-09-15T23:10:15.081Z,12.91
2022-09-15T23:12:41.451Z,12.83
2022-09-15T23:15:08.085Z,12.76
2022-09-15T23:17:34.676Z,13.09
2022-09-15T23:20:01.100Z,13.07
2022-09-15T23:22:27.388Z,13.10
2022-09-15T23:24:53.834Z,13.17
2022-09-15T23:27:20.141Z,13.24
2022-09-15T23:29:46.461Z,13.26
2022-09-15T23:32:12.817Z,13.04
2022-09-15T23:34:39.100Z,13.18
2022-09-15T23:37:05.447Z,13.01
2022-09-15T23:39:31.784Z,12.91
2022-09-15T23:41:58.124Z,13.04
2022-09-15T23:44:24.668Z,13.04
2022-09-15T23:46:51.069Z,12.76
2022-09-15T23:49:18.825Z,12.80
2022-09-15T23:51:45.298Z,12.81
2022-09-15T23:54:11.644Z,12.75
2022-09-15T23:56:38.362Z,12.75
2022-09-15T23:59:04.659Z,12.55
